This is the latest recevied weather packets stored in our database for station/object VA7NIC-10. If no packets are shown the sender has not sent any weather packets the latest 10 day(s).
| Time | Temp. | Humidity | Pressure | Rain* | Wind** | Luminosity | Snow |
|---|---|---|---|---|---|---|---|
| 1777780322 | 22.22° C | 40% | 1013.4 hPa | 0 mm | - | - | - |
| 1777779422 | 23.33° C | 39% | 1013.3 hPa | 0 mm | - | - | - |
| 1777778522 | 23.89° C | 36% | 1013.2 hPa | 0 mm | - | - | - |
| 1777777622 | 24.44° C | 33% | 1013.1 hPa | 0 mm | - | - | - |
| 1777776722 | 25° C | 31% | 1013 hPa | 0 mm | - | - | - |
| 1777775821 | 25° C | 31% | 1013 hPa | 0 mm | - | - | - |
| 1777774921 | 25° C | 30% | 1013 hPa | 0 mm | - | - | - |
| 1777774021 | 25° C | 30% | 1013.1 hPa | 0 mm | - | - | - |
| 1777773121 | 25.56° C | 29% | 1013.1 hPa | 0 mm | - | - | - |
| 1777771321 | 25.56° C | 29% | 1013.2 hPa | 0 mm | - | - | - |
| 1777767722 | 25.56° C | 30% | 1013.5 hPa | 0 mm | - | - | - |
| 1777766822 | 25.56° C | 30% | 1013.6 hPa | 0 mm | - | - | - |
| 1777765022 | 25.56° C | 31% | 1013.9 hPa | 0 mm | - | - | - |
| 1777764122 | 25.56° C | 31% | 1014.2 hPa | 0 mm | - | - | - |
| 1777763222 | 25.56° C | 32% | 1014.5 hPa | 0 mm | - | - | - |
| 1777760521 | 25.56° C | 30% | 1014.9 hPa | 0 mm | - | - | - |
| 1777757821 | 25° C | 32% | 1015.1 hPa | 0 mm | - | - | - |
| 1777752422 | 24.44° C | 44% | 1016.1 hPa | 0 mm | - | - | - |
| 1777749722 | 23.33° C | 48% | 1016.4 hPa | 0 mm | - | - | - |
| 1777748822 | 22.78° C | 48% | 1016.6 hPa | 0 mm | - | - | - |
| 1777743421 | 17.78° C | 65% | 1017.1 hPa | 0 mm | - | - | - |
| 1777739822 | 14.44° C | 74% | 1017.5 hPa | 0 mm | - | - | - |
| 1777738922 | 13.89° C | 78% | 1017.6 hPa | 0 mm | - | - | - |
| 1777738022 | 13.33° C | 80% | 1017.6 hPa | 0 mm | - | - | - |
| 1777737122 | 12.22° C | 83% | 1017.6 hPa | 0 mm | - | - | - |
* Rain latest hour (hover to see other rain measurements)
** Current wind speed in m/s (hover to see current wind gust speed)